createdAt,value
2023-09-18T00:01:27.604Z,99.40
2023-09-18T00:06:27.960Z,99.20
2023-09-18T00:11:29.910Z,99.40
2023-09-18T00:16:32.588Z,99.30
2023-09-18T00:21:39.510Z,99.30
2023-09-18T00:26:43.047Z,99.30
2023-09-18T00:31:43.384Z,99.40
2023-09-18T00:36:44.331Z,99.30
2023-09-18T00:41:51.050Z,99.30
2023-09-18T00:46:52.249Z,99.30
2023-09-18T00:51:52.616Z,99.30
2023-09-18T00:57:00.598Z,99.30
2023-09-18T01:02:02.973Z,99.30
2023-09-18T01:07:05.431Z,99.30
2023-09-18T01:12:14.174Z,99.40
2023-09-18T01:17:16.306Z,99.30
2023-09-18T01:22:18.498Z,99.40
2023-09-18T01:27:21.641Z,99.40
2023-09-18T01:32:21.524Z,99.40
2023-09-18T01:37:24.149Z,99.40
2023-09-18T01:42:26.384Z,99.50
2023-09-18T01:47:28.960Z,99.50
2023-09-18T01:52:28.358Z,99.30
2023-09-18T01:57:31.800Z,99.30
2023-09-18T02:02:52.411Z,99.50
2023-09-18T02:07:52.583Z,99.50
2023-09-18T02:12:55.510Z,99.60
2023-09-18T02:17:56.771Z,99.50
2023-09-18T02:22:58.315Z,99.50
2023-09-18T02:27:59.736Z,99.60
2023-09-18T02:33:00.144Z,99.50
2023-09-18T02:37:59.908Z,99.50
2023-09-18T02:43:04.200Z,99.40
2023-09-18T02:48:05.762Z,99.50
2023-09-18T02:53:06.343Z,99.40
2023-09-18T02:58:07.821Z,99.60
2023-09-18T03:03:08.162Z,99.50
2023-09-18T03:08:08.762Z,99.50
2023-09-18T03:13:12.233Z,99.40
2023-09-18T03:18:12.938Z,99.90
2023-09-18T03:23:14.193Z,99.50
2023-09-18T03:28:16.629Z,99.50
2023-09-18T03:33:17.792Z,99.60
2023-09-18T03:38:17.841Z,99.60
2023-09-18T03:43:20.297Z,99.70
2023-09-18T03:48:22.550Z,99.90
2023-09-18T03:53:23.762Z,99.90
2023-09-18T03:58:25.209Z,99.80
2023-09-18T04:03:28.321Z,99.70
2023-09-18T04:08:28.803Z,99.70
2023-09-18T04:13:30.712Z,99.70
2023-09-18T04:18:30.987Z,99.70
2023-09-18T04:23:31.101Z,99.80
2023-09-18T04:28:41.117Z,99.70
2023-09-18T04:33:41.274Z,99.80
2023-09-18T04:38:41.758Z,99.80
2023-09-18T04:43:44.730Z,99.70
2023-09-18T04:48:44.644Z,99.80
2023-09-18T04:53:44.957Z,99.80
2023-09-18T04:58:47.314Z,99.90
2023-09-18T05:03:47.854Z,99.80
2023-09-18T05:08:47.941Z,99.90
2023-09-18T05:13:49.998Z,99.90
2023-09-18T05:18:50.397Z,99.90
2023-09-18T05:23:53.964Z,99.90
2023-09-18T05:28:57.103Z,99.90
2023-09-18T05:33:57.032Z,99.90
2023-09-18T05:38:57.145Z,99.90
2023-09-18T05:44:00.196Z,99.90
2023-09-18T05:49:00.078Z,99.90
2023-09-18T05:54:00.268Z,99.90
2023-09-18T05:59:02.046Z,99.90
2023-09-18T06:04:02.274Z,99.90
2023-09-18T06:09:03.145Z,99.90
2023-09-18T06:14:05.220Z,99.90
2023-09-18T06:19:05.437Z,99.90
2023-09-18T06:24:05.391Z,99.90
2023-09-18T06:29:07.073Z,99.90
2023-09-18T06:34:08.535Z,99.90
2023-09-18T06:39:12.888Z,99.90
2023-09-18T06:44:13.577Z,99.90
2023-09-18T06:49:16.115Z,99.90
2023-09-18T06:54:15.361Z,99.90
2023-09-18T06:59:18.099Z,99.90
2023-09-18T07:04:17.337Z,99.90
2023-09-18T07:09:20.395Z,99.90
2023-09-18T07:14:21.710Z,99.90
2023-09-18T07:19:21.653Z,99.90
2023-09-18T07:24:22.986Z,99.90
2023-09-18T07:29:26.565Z,99.90
2023-09-18T07:34:28.166Z,99.90
2023-09-18T07:39:30.750Z,99.90
2023-09-18T07:44:33.791Z,99.90
2023-09-18T07:49:34.283Z,99.90
2023-09-18T07:54:34.855Z,99.90
2023-09-18T07:59:36.430Z,99.90
2023-09-18T08:04:36.820Z,99.90
2023-09-18T08:09:38.104Z,99.90
2023-09-18T08:14:40.583Z,99.90
2023-09-18T08:19:41.965Z,99.90
2023-09-18T08:24:42.292Z,99.90
2023-09-18T08:29:44.198Z,99.90
2023-09-18T08:34:44.563Z,99.90
2023-09-18T08:39:44.755Z,99.90
2023-09-18T08:44:52.529Z,99.90
2023-09-18T08:50:03.495Z,99.90
2023-09-18T08:55:04.868Z,99.90
2023-09-18T09:00:09.662Z,99.90
2023-09-18T09:05:10.559Z,99.90
2023-09-18T09:10:11.582Z,99.90
2023-09-18T09:15:14.244Z,99.90
2023-09-18T09:20:15.596Z,99.90
2023-09-18T09:25:29.699Z,99.90
2023-09-18T09:30:32.422Z,99.90
2023-09-18T09:35:34.351Z,99.90
2023-09-18T09:40:35.050Z,99.90
2023-09-18T09:45:38.831Z,99.90
2023-09-18T09:50:50.538Z,99.90
2023-09-18T09:55:58.191Z,99.90
2023-09-18T10:01:07.949Z,99.90
2023-09-18T10:11:29.542Z,99.90
2023-09-18T10:16:35.517Z,99.90
2023-09-18T10:21:45.123Z,99.90
2023-09-18T10:26:51.683Z,99.90
2023-09-18T10:31:54.077Z,99.90
2023-09-18T10:36:58.597Z,99.90
2023-09-18T10:42:00.241Z,99.90
2023-09-18T10:47:06.855Z,99.90
2023-09-18T10:52:08.535Z,99.90
2023-09-18T10:57:11.198Z,99.90
2023-09-18T11:02:16.772Z,99.90
2023-09-18T11:07:23.521Z,99.90
2023-09-18T11:12:43.730Z,99.90
2023-09-18T11:17:45.485Z,99.90
2023-09-18T11:22:51.554Z,99.90
2023-09-18T11:27:57.931Z,99.90
2023-09-18T11:33:01.558Z,99.90
2023-09-18T11:38:09.307Z,99.90
2023-09-18T11:43:27.075Z,99.90
2023-09-18T11:48:30.115Z,99.90
2023-09-18T11:53:31.766Z,99.90
2023-09-18T11:58:48.874Z,99.90
2023-09-18T12:03:56.190Z,99.90
2023-09-18T12:08:57.730Z,99.90
2023-09-18T12:13:59.950Z,99.80
2023-09-18T12:19:01.796Z,99.90
2023-09-18T12:24:03.016Z,99.90
2023-09-18T12:29:03.932Z,99.90
2023-09-18T12:34:09.744Z,99.80
2023-09-18T12:39:11.325Z,99.90
2023-09-18T12:44:11.876Z,99.50
2023-09-18T12:49:30.105Z,99.40
2023-09-18T12:54:43.381Z,98.80
2023-09-18T12:59:43.851Z,99.00
2023-09-18T13:04:58.091Z,98.60
2023-09-18T13:10:05.345Z,98.80
2023-09-18T13:15:10.913Z,99.00
2023-09-18T13:20:16.475Z,98.90
2023-09-18T13:25:25.055Z,98.90
2023-09-18T13:30:26.936Z,98.70
2023-09-18T13:35:29.116Z,97.90
2023-09-18T13:40:28.897Z,97.80
2023-09-18T13:45:29.660Z,97.70
2023-09-18T13:50:31.077Z,97.70
2023-09-18T13:55:31.982Z,97.30
2023-09-18T14:00:32.330Z,97.50
2023-09-18T14:05:36.306Z,97.60
2023-09-18T14:10:37.049Z,97.50
2023-09-18T14:15:37.412Z,97.60
2023-09-18T14:20:39.450Z,97.80
2023-09-18T14:25:39.469Z,97.90
2023-09-18T14:30:39.681Z,97.80
2023-09-18T14:35:41.322Z,97.70
2023-09-18T14:40:44.855Z,97.80
2023-09-18T14:45:43.886Z,97.90
2023-09-18T14:50:48.737Z,97.90
2023-09-18T14:55:48.313Z,97.90
2023-09-18T15:00:49.434Z,98.00
2023-09-18T15:05:53.348Z,98.10
2023-09-18T15:10:54.612Z,98.00
2023-09-18T15:15:54.969Z,98.10
2023-09-18T15:20:58.010Z,98.20
2023-09-18T15:25:59.179Z,98.30
2023-09-18T15:30:57.868Z,98.20
2023-09-18T15:35:59.329Z,98.00
2023-09-18T15:41:00.073Z,97.90
2023-09-18T15:46:01.394Z,97.90
2023-09-18T15:51:05.225Z,98.00
2023-09-18T15:56:05.297Z,98.10
2023-09-18T16:01:13.707Z,98.20
2023-09-18T16:06:17.110Z,98.20
2023-09-18T16:11:17.392Z,98.40
2023-09-18T16:16:17.425Z,98.50
2023-09-18T16:21:19.346Z,98.40
2023-09-18T16:26:18.842Z,98.40
2023-09-18T16:31:18.659Z,98.40
2023-09-18T16:36:20.890Z,98.40
2023-09-18T16:41:21.399Z,98.40
2023-09-18T16:46:21.473Z,98.50
2023-09-18T16:51:22.940Z,98.60
2023-09-18T16:56:23.021Z,98.50
2023-09-18T17:01:25.012Z,98.50
2023-09-18T17:06:25.412Z,98.60
2023-09-18T17:11:27.403Z,98.60
2023-09-18T17:16:27.806Z,98.60
2023-09-18T17:21:29.943Z,99.00
2023-09-18T17:26:30.908Z,98.80
2023-09-18T17:31:31.645Z,98.80
2023-09-18T17:36:40.962Z,98.90
2023-09-18T17:41:42.012Z,99.30
2023-09-18T17:46:42.429Z,99.00
2023-09-18T17:51:45.243Z,99.00
2023-09-18T17:56:45.688Z,99.10
2023-09-18T18:01:46.870Z,99.10
2023-09-18T18:06:49.114Z,99.30
2023-09-18T18:11:52.317Z,99.30
2023-09-18T18:17:11.092Z,99.30
2023-09-18T18:22:13.709Z,99.30
2023-09-18T18:27:20.547Z,99.30
2023-09-18T18:32:19.730Z,99.40
2023-09-18T18:37:20.960Z,99.40
2023-09-18T18:42:24.011Z,99.40
2023-09-18T18:47:24.468Z,99.40
2023-09-18T18:52:26.308Z,99.60
2023-09-18T18:57:26.349Z,99.50
2023-09-18T19:02:26.539Z,99.50
2023-09-18T19:07:28.598Z,99.50
2023-09-18T19:12:29.681Z,99.60
2023-09-18T19:17:29.865Z,99.70
2023-09-18T19:22:35.165Z,99.70
2023-09-18T19:27:38.906Z,99.80
2023-09-18T19:32:39.958Z,99.80
2023-09-18T19:37:41.868Z,99.90
2023-09-18T19:42:43.998Z,99.90
2023-09-18T19:47:45.285Z,99.90
2023-09-18T19:52:47.802Z,99.90
2023-09-18T19:57:49.073Z,99.90
2023-09-18T20:02:49.315Z,99.90
2023-09-18T20:07:51.460Z,99.90
2023-09-18T20:12:53.396Z,99.90
2023-09-18T20:17:54.165Z,99.90
2023-09-18T20:22:55.557Z,99.90
2023-09-18T20:27:57.016Z,99.90
2023-09-18T20:32:58.725Z,99.90
2023-09-18T20:38:03.078Z,99.90
2023-09-18T20:43:03.417Z,99.90
2023-09-18T20:48:03.728Z,99.90
2023-09-18T20:53:07.575Z,99.90
2023-09-18T20:58:09.374Z,99.90
2023-09-18T21:03:10.066Z,99.90
2023-09-18T21:08:12.543Z,99.90
2023-09-18T21:13:13.277Z,99.90
2023-09-18T21:18:13.166Z,99.90
2023-09-18T21:23:16.027Z,99.90
2023-09-18T21:28:16.436Z,99.90
2023-09-18T21:33:17.320Z,99.90
2023-09-18T21:38:20.120Z,99.90
2023-09-18T21:43:20.887Z,99.90
2023-09-18T21:48:21.332Z,99.90
2023-09-18T21:53:24.517Z,99.90
2023-09-18T21:58:24.304Z,99.90
2023-09-18T22:03:24.997Z,99.90
2023-09-18T22:08:27.607Z,99.90
2023-09-18T22:13:27.228Z,99.90
2023-09-18T22:18:32.052Z,99.90
2023-09-18T22:23:34.172Z,99.90
2023-09-18T22:28:34.582Z,99.90
2023-09-18T22:33:35.073Z,99.90
2023-09-18T22:38:42.938Z,99.90
2023-09-18T22:44:21.928Z,99.90
2023-09-18T22:49:59.841Z,99.90
2023-09-18T22:55:02.233Z,99.90
2023-09-18T23:00:03.962Z,99.90
2023-09-18T23:05:05.204Z,99.90
2023-09-18T23:10:10.228Z,99.90
2023-09-18T23:15:12.813Z,99.90
2023-09-18T23:20:15.572Z,99.90
2023-09-18T23:25:17.808Z,99.90
2023-09-18T23:30:20.982Z,99.90
2023-09-18T23:35:22.998Z,99.90
2023-09-18T23:40:25.470Z,99.90
2023-09-18T23:45:25.904Z,99.90
2023-09-18T23:50:31.559Z,99.90
2023-09-18T23:55:34.053Z,99.90
